Time;durP1;ratioP1;P1;durP2;ratioP2;P2;SDS_P1;SDS_P2;PMS_P1;PMS_P2;Temp;Humidity;BMP_temperature;BMP_pressure;BME280_temperature;BME280_humidity;BME280_pressure;Samples;Min_cycle;Max_cycle;Signal;HPM_P1;HPM_P2
2022/01/10 00:02:03;;;;;;;3.23;2.93;;;;;;;13.49;46.62;95796.84;6102272;23;20203;-91
2022/01/10 00:04:30;;;;;;;3.23;2.93;;;;;;;16.02;46.55;96174.88;6076793;23;20225;-87
2022/01/10 00:06:57;;;;;;;3.03;2.77;;;;;;;15.57;46.49;96086.59;6100494;23;20194;-83
2022/01/10 00:09:24;;;;;;;3.13;2.83;;;;;;;13.67;46.58;95772.22;6100228;23;20175;-83
2022/01/10 00:11:54;;;;;;;3.30;3.00;;;;;;;11.33;46.55;95539.78;6076494;23;20198;-86
2022/01/10 00:14:21;;;;;;;3.17;2.87;;;;;;;13.98;46.53;95827.06;6100477;23;20244;-88
2022/01/10 00:16:51;;;;;;;3.10;2.80;;;;;;;16.30;46.51;96252.56;6101125;23;20273;-83
2022/01/10 00:19:17;;;;;;;3.20;2.90;;;;;;;12.17;46.54;95505.09;6124789;23;20171;-85
2022/01/10 00:21:44;;;;;;;3.37;3.07;;;;;;;13.60;46.34;95825.84;6076728;23;20159;-81
2022/01/10 00:24:13;;;;;;;3.20;2.90;;;;;;;8.97;46.40;94990.69;6076371;23;20191;-82
2022/01/10 00:26:39;;;;;;;3.03;2.73;;;;;;;15.89;46.45;96139.00;6100436;23;20194;-87
2022/01/10 00:29:06;;;;;;;4.17;3.30;;;;;;;15.99;46.67;96215.31;6123677;23;20193;-85
2022/01/10 00:31:33;;;;;;;3.90;3.20;;;;;;;11.42;46.90;95484.78;6077804;23;20230;-83
2022/01/10 00:34:02;;;;;;;3.67;3.30;;;;;;;11.93;46.44;95464.00;6099692;23;20225;-83
2022/01/10 00:36:28;;;;;;;3.37;3.07;;;;;;;15.95;46.54;96193.25;6077945;23;20170;-84
2022/01/10 00:38:57;;;;;;;3.20;2.90;;;;;;;16.88;46.72;96304.19;6076579;23;20548;-82
2022/01/10 00:41:25;;;;;;;3.87;3.33;;;;;;;14.36;46.37;95875.44;6100356;23;20171;-83
2022/01/10 00:43:52;;;;;;;3.20;2.90;;;;;;;14.51;46.58;96009.84;6099848;23;20198;-82
2022/01/10 00:46:19;;;;;;;3.30;3.00;;;;;;;8.89;46.11;94992.03;6125201;23;20159;-84
2022/01/10 00:48:47;;;;;;;3.27;2.97;;;;;;;13.22;46.24;95674.91;6099665;23;20175;-82
2022/01/10 00:51:14;;;;;;;3.30;3.00;;;;;;;16.51;46.32;96265.03;6124878;23;20175;-83
2022/01/10 00:53:44;;;;;;;3.07;2.77;;;;;;;16.05;46.30;96156.38;6077169;23;20195;-84
2022/01/10 00:56:11;;;;;;;3.40;3.10;;;;;;;13.29;46.49;95693.63;6100423;23;20175;-82
2022/01/10 00:58:38;;;;;;;3.03;2.80;;;;;;;14.59;46.72;95919.09;6099276;23;20254;-84
2022/01/10 01:01:07;;;;;;;3.27;2.97;;;;;;;13.87;46.43;95896.53;6100421;23;20186;-82
2022/01/10 01:03:34;;;;;;;2.80;2.60;;;;;;;8.24;45.92;94878.66;6077311;23;20258;-83
2022/01/10 01:06:04;;;;;;;3.30;3.00;;;;;;;9.30;46.13;95156.41;6101034;23;20171;-84
2022/01/10 01:08:35;;;;;;;3.30;3.00;;;;;;;10.90;46.60;95324.63;6102357;23;20213;-82
2022/01/10 01:11:31;;;;;;;3.10;2.80;;;;;;;15.93;46.09;96156.03;6101890;23;20409;-84
2022/01/10 01:13:58;;;;;;;3.30;3.00;;;;;;;14.22;46.36;95947.41;6134148;23;20208;-86
2022/01/10 01:24:39;;;;;;;3.20;2.90;;;;;;;8.84;46.18;94966.00;6116855;23;20200;-88
2022/01/10 01:27:09;;;;;;;3.00;2.70;;;;;;;13.62;46.75;95824.19;6084301;23;20197;-83
2022/01/10 01:29:36;;;;;;;3.27;2.97;;;;;;;13.64;46.26;95936.16;6106108;23;20182;-83
2022/01/10 01:32:03;;;;;;;3.60;3.30;;;;;;;15.60;46.48;96170.22;6107371;23;20174;-83
2022/01/10 01:34:35;;;;;;;3.37;3.07;;;;;;;11.39;46.26;95510.69;6083246;23;20662;-83
2022/01/10 01:37:02;;;;;;;3.03;2.83;;;;;;;18.96;46.61;96752.28;6083460;23;20178;-86
2022/01/10 01:39:35;;;;;;;3.50;3.20;;;;;;;16.40;46.58;96316.25;6130165;23;20657;-83
2022/01/10 01:42:06;;;;;;;3.60;2.93;;;;;;;16.03;45.82;96470.53;6084574;23;20566;-83
2022/01/10 01:44:33;;;;;;;3.20;2.90;;;;;;;15.20;46.54;96195.03;6106404;23;20198;-90
2022/01/10 01:47:00;;;;;;;3.67;3.17;;;;;;;13.29;46.79;95797.03;6084488;23;20186;-88
2022/01/10 01:49:27;;;;;;;3.30;3.00;;;;;;;11.31;45.67;95456.75;6107985;23;20547;-90
2022/01/10 01:51:54;;;;;;;3.37;3.07;;;;;;;17.05;46.51;96470.47;6083883;23;20174;-90
2022/01/10 01:54:24;;;;;;;3.40;3.10;;;;;;;13.60;46.50;95885.53;6108006;23;20285;-93
2022/01/10 01:56:54;;;;;;;3.30;3.00;;;;;;;13.62;46.70;95920.09;6083793;23;20284;-90
2022/01/10 01:59:20;;;;;;;2.70;2.50;;;;;;;14.65;46.58;96051.63;6084109;23;20178;-90
2022/01/10 02:01:48;;;;;;;2.80;2.60;;;;;;;13.53;46.55;95848.28;6083057;23;20225;-91
2022/01/10 02:04:15;;;;;;;3.00;2.70;;;;;;;19.20;46.52;96985.59;6131492;23;20662;-89
2022/01/10 02:06:42;;;;;;;3.30;3.00;;;;;;;14.51;46.02;96087.38;6082081;23;20178;-86
2022/01/10 02:09:11;;;;;;;3.70;3.23;;;;;;;18.22;46.29;96656.03;6106959;23;20174;-84
2022/01/10 02:11:38;;;;;;;3.17;2.87;;;;;;;17.05;46.50;96480.63;6083232;23;20218;-85
2022/01/10 02:14:04;;;;;;;3.20;2.90;;;;;;;14.44;46.34;96085.41;6099936;23;20231;-84
2022/01/10 02:16:41;;;;;;;4.23;3.20;;;;;;;11.09;46.27;95454.28;6101857;23;20202;-83
2022/01/10 02:19:07;;;;;;;3.33;2.90;;;;;;;13.84;46.17;95946.94;6080893;23;20163;-83
2022/01/10 02:21:35;;;;;;;3.43;3.00;;;;;;;17.93;46.36;96673.00;6078289;23;20222;-87
2022/01/10 02:24:03;;;;;;;3.67;2.93;;;;;;;13.68;46.26;96054.06;6101152;23;20265;-82
2022/01/10 02:26:30;;;;;;;3.20;2.90;;;;;;;9.30;45.97;95177.28;6078379;23;20167;-83
2022/01/10 02:28:57;;;;;;;3.63;3.00;;;;;;;13.39;46.35;96005.88;6101595;23;20187;-89
2022/01/10 02:31:24;;;;;;;2.93;2.73;;;;;;;13.10;46.37;95818.22;6101533;23;20170;-82
2022/01/10 02:33:56;;;;;;;3.10;2.80;;;;;;;15.34;46.32;96169.34;6101449;23;20207;-83
2022/01/10 02:36:27;;;;;;;3.23;2.87;;;;;;;9.37;46.04;95277.75;6125831;23;20508;-83
2022/01/10 02:38:54;;;;;;;3.80;3.40;;;;;;;11.36;46.43;95549.94;6125398;23;20163;-84
2022/01/10 02:41:27;;;;;;;3.57;2.90;;;;;;;19.60;46.24;96918.84;6125668;23;20538;-85
2022/01/10 02:43:55;;;;;;;3.30;3.00;;;;;;;11.61;46.10;95583.63;6127917;23;20538;-83
2022/01/10 02:46:25;;;;;;;3.30;3.00;;;;;;;13.42;46.32;95860.53;6078204;23;20203;-84
2022/01/10 02:48:52;;;;;;;3.37;3.07;;;;;;;9.10;45.57;95265.84;6101904;23;20805;-81
2022/01/10 02:51:20;;;;;;;2.90;2.70;;;;;;;11.54;46.03;95540.56;6101620;23;20533;-82
2022/01/10 02:53:47;;;;;;;3.30;3.00;;;;;;;16.10;46.50;96357.53;6102061;23;20191;-84
2022/01/10 02:56:15;;;;;;;2.90;2.70;;;;;;;16.53;46.29;96453.59;6126426;23;20178;-84
2022/01/10 02:58:42;;;;;;;3.30;3.00;;;;;;;19.03;46.14;96833.97;6102387;23;20203;-82
2022/01/10 03:01:08;;;;;;;2.77;2.57;;;;;;;12.42;46.17;95749.38;6126139;23;20655;-83
2022/01/10 03:03:35;;;;;;;2.80;2.60;;;;;;;13.57;45.89;95962.00;6101260;23;20218;-85
2022/01/10 03:06:02;;;;;;;3.60;2.80;;;;;;;11.41;45.95;95549.34;6076876;23;20693;-83
2022/01/10 03:08:30;;;;;;;3.20;2.90;;;;;;;10.87;45.89;95553.13;6101066;23;20659;-84
2022/01/10 03:11:00;;;;;;;2.90;2.70;;;;;;;14.94;45.88;96135.13;6102008;23;20175;-86
2022/01/10 03:13:27;;;;;;;3.07;2.77;;;;;;;11.20;45.95;95530.09;6081036;23;20195;-83
2022/01/10 03:15:56;;;;;;;3.43;2.97;;;;;;;11.89;45.77;95707.13;6132708;23;20178;-84
2022/01/10 03:18:24;;;;;;;3.07;2.67;;;;;;;13.64;45.85;95989.16;6132828;23;20684;-84
2022/01/10 03:20:50;;;;;;;2.83;2.60;;;;;;;16.07;46.20;96458.81;6109517;23;20174;-83
2022/01/10 03:23:17;;;;;;;3.43;3.00;;;;;;;11.26;45.96;95535.34;6108552;23;20194;-81
2022/01/10 03:25:47;;;;;;;3.43;3.10;;;;;;;11.76;45.84;95629.50;6107886;23;20234;-86
2022/01/10 03:28:15;;;;;;;3.10;2.80;;;;;;;11.70;45.99;95659.47;6084288;23;20194;-83
2022/01/10 03:30:42;;;;;;;3.07;2.77;;;;;;;14.55;45.84;96111.94;6108603;23;20180;-82
2022/01/10 03:33:09;;;;;;;3.40;3.10;;;;;;;9.24;45.59;95223.81;6107654;23;20287;-85
2022/01/10 03:35:36;;;;;;;3.17;2.83;;;;;;;11.07;45.81;95665.31;6107571;23;20174;-83
2022/01/10 03:38:03;;;;;;;3.10;2.80;;;;;;;9.73;46.00;95305.13;6083601;23;20166;-85
2022/01/10 03:40:30;;;;;;;2.90;2.57;;;;;;;13.29;46.12;95908.00;6082718;23;20174;-84
2022/01/10 03:42:57;;;;;;;3.40;2.70;;;;;;;19.49;46.15;96972.06;6130921;23;20170;-82
2022/01/10 03:45:27;;;;;;;3.00;2.70;;;;;;;13.57;45.74;96037.69;6107505;23;20170;-92
2022/01/10 03:47:54;;;;;;;2.60;2.40;;;;;;;14.51;46.00;96184.25;6082982;23;20273;-91
2022/01/10 03:50:20;;;;;;;2.90;2.60;;;;;;;11.48;46.05;95624.19;6083080;23;20170;-89
2022/01/10 03:52:47;;;;;;;2.97;2.67;;;;;;;12.98;46.08;95910.16;6083249;23;20175;-90
2022/01/10 03:55:25;;;;;;;2.60;2.40;;;;;;;15.07;46.05;96387.72;6084786;23;20193;-90
2022/01/10 03:57:54;;;;;;;2.80;2.60;;;;;;;10.71;45.99;95539.91;6084624;23;20165;-90
2022/01/10 04:00:22;;;;;;;3.40;2.80;;;;;;;13.65;46.08;96078.34;6083611;23;20185;-90
2022/01/10 04:03:01;;;;;;;3.40;3.00;;;;;;;13.88;46.01;96108.66;6083792;23;20174;-91
2022/01/10 04:05:34;;;;;;;2.80;2.40;;;;;;;13.46;46.21;96136.50;6087498;23;20190;-90
2022/01/10 04:08:01;;;;;;;2.70;2.50;;;;;;;10.12;45.83;95466.41;6083065;23;20241;-90
2022/01/10 04:10:28;;;;;;;3.03;2.73;;;;;;;15.14;45.86;96377.88;6083127;23;20178;-89
2022/01/10 04:13:01;;;;;;;3.50;3.03;;;;;;;15.65;46.71;96386.44;6106730;23;20181;-91
2022/01/10 04:21:46;;;;;;;;;;;;;;;;;;;;;
2022/01/10 04:29:13;;;;;;;2.90;2.60;;;;;;;19.53;45.96;97035.03;6025444;23;20196;-94
2022/01/10 04:32:46;;;;;;;3.10;2.80;;;;;;;18.08;46.00;96823.44;6032126;23;20180;-93
2022/01/10 04:43:47;;;;;;;3.00;2.80;;;;;;;17.30;45.91;96688.75;6185136;23;20201;-94
2022/01/10 04:46:19;;;;;;;2.87;2.67;;;;;;;18.12;45.87;96844.75;6113100;23;20168;-95
2022/01/10 04:48:55;;;;;;;2.70;2.50;;;;;;;17.51;45.65;96719.94;6139941;23;20189;-96
2022/01/10 04:51:28;;;;;;;3.00;2.70;;;;;;;18.34;45.74;96884.44;6110631;23;20170;-94
2022/01/10 04:54:01;;;;;;;3.10;2.80;;;;;;;17.05;45.83;96705.66;6115678;23;20196;-94
2022/01/10 04:56:31;;;;;;;2.90;2.60;;;;;;;18.55;45.84;96947.06;6135678;23;20174;-94
2022/01/10 04:59:04;;;;;;;3.30;2.60;;;;;;;17.89;45.64;96818.56;6113434;23;20214;-94
2022/01/10 05:01:34;;;;;;;3.00;2.70;;;;;;;17.63;45.79;96760.13;6112051;23;20170;-95
2022/01/10 05:04:10;;;;;;;2.97;2.67;;;;;;;18.07;45.62;96864.09;6115016;23;20193;-95
2022/01/10 05:06:36;;;;;;;2.50;2.30;;;;;;;18.71;45.44;96954.34;6111216;23;20648;-94
2022/01/10 05:09:03;;;;;;;2.93;2.60;;;;;;;19.38;45.60;97077.91;6110299;23;20202;-95
2022/01/10 05:11:32;;;;;;;2.60;2.40;;;;;;;19.06;45.31;97027.63;6134726;23;20194;-94
2022/01/10 05:14:06;;;;;;;2.90;2.60;;;;;;;18.75;45.57;96980.78;6110338;23;20194;-95
2022/01/10 05:16:32;;;;;;;3.23;2.57;;;;;;;19.33;45.46;97092.19;6111749;23;20200;-94
2022/01/10 05:18:59;;;;;;;2.60;2.40;;;;;;;19.05;45.49;97028.44;6110788;23;20197;-95
2022/01/10 05:21:26;;;;;;;3.00;2.70;;;;;;;18.49;45.50;96957.06;6111358;23;20244;-93
2022/01/10 05:24:01;;;;;;;3.47;2.70;;;;;;;17.86;45.76;96838.81;6110687;23;20190;-94
2022/01/10 05:26:28;;;;;;;3.00;2.63;;;;;;;18.03;45.84;96891.06;6135030;23;20177;-94
2022/01/10 05:28:55;;;;;;;2.73;2.53;;;;;;;18.04;45.85;96856.34;6110285;23;20586;-94
2022/01/10 05:31:22;;;;;;;2.93;2.57;;;;;;;18.34;46.13;96918.38;6110252;23;20185;-95
2022/01/10 05:33:49;;;;;;;3.83;2.53;;;;;;;18.01;46.04;96864.75;6111128;23;20260;-95
2022/01/10 05:36:16;;;;;;;3.00;2.70;;;;;;;16.65;46.21;96684.78;6135523;23;20185;-94
2022/01/10 05:38:43;;;;;;;2.50;2.30;;;;;;;16.96;46.02;96703.66;6111581;23;20235;-94
2022/01/10 05:41:10;;;;;;;2.90;2.60;;;;;;;18.74;45.94;97001.97;6111523;23;20174;-93
2022/01/10 05:43:46;;;;;;;2.50;2.30;;;;;;;19.15;45.98;97088.16;6106014;23;20178;-95
2022/01/10 05:46:20;;;;;;;2.60;2.40;;;;;;;18.03;46.06;96880.06;6103715;23;20494;-92
2022/01/10 05:48:49;;;;;;;3.47;2.50;;;;;;;17.98;45.94;96876.50;6106427;23;20182;-94
2022/01/10 05:51:16;;;;;;;2.60;2.40;;;;;;;17.73;46.08;96829.06;6106692;23;20221;-93
2022/01/10 05:53:56;;;;;;;2.67;2.47;;;;;;;18.02;45.91;96901.19;6106230;23;20178;-94
2022/01/10 05:56:23;;;;;;;3.23;2.60;;;;;;;17.93;46.17;96881.44;6107099;23;20520;-93
2022/01/10 05:58:49;;;;;;;7.93;5.97;;;;;;;18.01;41.26;96933.41;6107099;23;20177;-92
2022/01/10 06:01:22;;;;;;;8.17;6.00;;;;;;;18.71;38.56;97030.72;6106682;23;20638;-90
2022/01/10 06:03:49;;;;;;;6.70;4.93;;;;;;;18.85;37.77;97075.31;6107011;23;20236;-93
2022/01/10 06:06:16;;;;;;;7.13;5.27;;;;;;;17.95;38.03;96930.63;6107183;23;20229;-92
2022/01/10 06:08:44;;;;;;;6.10;4.73;;;;;;;18.58;38.85;97056.59;6107306;23;20249;-92
2022/01/10 06:11:10;;;;;;;5.83;4.53;;;;;;;19.43;39.50;97195.28;6131235;23;20175;-91
2022/01/10 06:13:38;;;;;;;6.67;5.00;;;;;;;18.83;38.18;97099.84;6107014;23;20174;-92
2022/01/10 06:16:05;;;;;;;6.73;6.03;;;;;;;18.81;36.59;97113.34;6107298;23;20175;-93
2022/01/10 06:18:32;;;;;;;10.50;6.10;;;;;;;18.73;35.91;97099.47;6107182;23;20174;-93
2022/01/10 06:20:59;;;;;;;8.80;5.77;;;;;;;18.51;35.40;97080.09;6106256;23;20181;-93
2022/01/10 06:23:25;;;;;;;6.70;5.53;;;;;;;19.02;35.16;97177.72;6106171;23;20174;-90
2022/01/10 06:25:52;;;;;;;9.73;5.63;;;;;;;18.88;35.55;97167.06;6106706;23;20544;-93
2022/01/10 06:28:19;;;;;;;8.00;6.10;;;;;;;18.85;35.58;97163.53;6130612;23;20676;-93
2022/01/10 06:30:45;;;;;;;7.80;5.67;;;;;;;18.73;35.47;97174.19;6105671;23;20171;-94
2022/01/10 06:33:12;;;;;;;6.37;5.13;;;;;;;18.62;35.72;97165.28;6105808;23;20180;-93
2022/01/10 06:35:39;;;;;;;6.17;5.17;;;;;;;18.90;35.72;97224.00;6129689;23;20226;-93
2022/01/10 06:38:05;;;;;;;7.20;5.57;;;;;;;18.39;35.71;97147.50;6106476;23;20221;-94
2022/01/10 06:40:32;;;;;;;6.47;5.50;;;;;;;18.74;35.32;97226.81;6105773;23;20179;-92
2022/01/10 06:42:58;;;;;;;6.30;5.23;;;;;;;18.51;35.84;97192.06;6105463;23;20669;-94
2022/01/10 06:45:25;;;;;;;11.57;5.07;;;;;;;18.13;36.27;97139.78;6130672;23;20542;-94
2022/01/10 06:47:52;;;;;;;6.60;4.97;;;;;;;18.00;37.04;97118.94;6155316;23;20182;-92
2022/01/10 06:50:18;;;;;;;6.20;4.60;;;;;;;18.44;37.52;97205.34;6130249;23;20560;-93
2022/01/10 06:52:45;;;;;;;7.60;4.80;;;;;;;18.41;38.35;97215.44;6105790;23;20209;-94
2022/01/10 06:55:12;;;;;;;6.57;4.50;;;;;;;18.37;38.84;97208.50;6128657;23;20736;-93
2022/01/10 06:57:38;;;;;;;5.87;4.63;;;;;;;18.37;38.87;97208.50;6105282;23;20198;-92
2022/01/10 07:00:06;;;;;;;5.53;4.50;;;;;;;18.51;39.06;97240.41;6105336;23;20162;-94
2022/01/10 07:02:32;;;;;;;7.63;5.00;;;;;;;18.37;39.39;97231.41;6106663;23;20556;-93
2022/01/10 07:04:59;;;;;;;5.73;4.77;;;;;;;18.63;39.87;97273.94;6107452;23;20191;-95
2022/01/10 07:07:26;;;;;;;6.10;4.10;;;;;;;18.57;39.79;97263.53;6106608;23;20166;-91
2022/01/10 07:09:52;;;;;;;5.27;4.43;;;;;;;18.23;40.52;97206.25;6153419;23;20221;-90
2022/01/10 07:12:19;;;;;;;6.20;4.50;;;;;;;18.54;40.68;97254.91;6128905;23;20615;-93
2022/01/10 07:14:46;;;;;;;6.13;4.60;;;;;;;18.49;40.62;97246.22;6128687;23;20199;-92
2022/01/10 07:17:12;;;;;;;5.80;3.90;;;;;;;18.00;40.76;97168.09;6131654;23;20243;-94
2022/01/10 07:19:39;;;;;;;5.77;3.80;;;;;;;18.02;40.80;97179.19;6105244;23;20194;-93
2022/01/10 07:22:06;;;;;;;5.00;4.00;;;;;;;18.45;40.90;97267.31;6128221;23;20233;-93
2022/01/10 07:24:33;;;;;;;4.60;4.03;;;;;;;18.38;40.70;97239.91;6127814;23;20197;-93
2022/01/10 07:27:01;;;;;;;4.97;3.80;;;;;;;18.60;40.53;97281.47;6127401;23;20239;-92
2022/01/10 07:29:27;;;;;;;5.07;4.00;;;;;;;18.14;40.80;97204.19;6104177;23;20209;-92
2022/01/10 07:31:54;;;;;;;5.50;3.77;;;;;;;18.64;41.06;97293.47;6104912;23;20213;-91
2022/01/10 07:34:21;;;;;;;5.13;3.90;;;;;;;18.69;41.06;97296.19;6104040;23;20205;-93
2022/01/10 07:36:48;;;;;;;4.47;3.60;;;;;;;18.43;41.08;97264.69;6104852;23;20194;-93
2022/01/10 07:39:15;;;;;;;4.63;3.40;;;;;;;18.69;41.44;97294.53;6104748;23;20177;-93
2022/01/10 07:41:45;;;;;;;4.83;4.07;;;;;;;18.66;41.14;97303.72;6129371;23;20171;-93
2022/01/10 07:44:11;;;;;;;5.43;4.10;;;;;;;18.92;41.02;97339.50;6103894;23;20229;-93
2022/01/10 07:46:38;;;;;;;7.37;3.87;;;;;;;18.86;41.29;97344.34;6128643;23;20190;-94
2022/01/10 07:49:05;;;;;;;6.30;4.20;;;;;;;18.79;41.44;97328.81;6104421;23;20221;-93
2022/01/10 07:51:31;;;;;;;6.57;4.00;;;;;;;18.68;41.39;97305.50;6104312;23;20179;-93
2022/01/10 07:53:59;;;;;;;5.77;3.87;;;;;;;18.91;41.38;97352.16;6103482;23;20190;-92
2022/01/10 07:56:26;;;;;;;5.33;3.87;;;;;;;18.77;41.64;97323.66;6104965;23;20495;-93
2022/01/10 07:58:53;;;;;;;6.83;4.00;;;;;;;18.71;42.08;97312.41;6104834;23;20240;-92
2022/01/10 08:01:19;;;;;;;4.17;3.60;;;;;;;18.44;41.98;97275.75;6104248;23;20194;-93
2022/01/10 08:03:49;;;;;;;3.63;3.30;;;;;;;18.73;42.24;97324.38;6128543;23;20642;-94
2022/01/10 08:06:19;;;;;;;4.70;3.60;;;;;;;18.76;42.44;97332.13;6104897;23;20221;-93
2022/01/10 08:08:45;;;;;;;3.90;3.23;;;;;;;18.71;42.57;97320.03;6103959;23;20190;-94
2022/01/10 08:11:12;;;;;;;4.73;3.47;;;;;;;18.87;42.31;97357.97;6103102;23;20201;-93
2022/01/10 08:13:41;;;;;;;4.30;3.33;;;;;;;18.25;42.78;97251.25;6127022;23;20208;-91
2022/01/10 08:16:08;;;;;;;3.80;3.30;;;;;;;18.42;42.71;97283.31;6103845;23;20660;-94
2022/01/10 08:18:35;;;;;;;3.80;3.13;;;;;;;18.42;42.83;97297.72;6103328;23;20210;-94
2022/01/10 08:21:03;;;;;;;3.57;3.10;;;;;;;18.46;43.16;97302.97;6103197;23;20174;-93
2022/01/10 08:23:29;;;;;;;3.30;2.97;;;;;;;18.95;42.96;97387.13;6103263;23;20194;-93
2022/01/10 08:25:56;;;;;;;3.30;2.73;;;;;;;18.49;43.47;97317.47;6103116;23;20197;-91
2022/01/10 08:28:23;;;;;;;3.93;2.83;;;;;;;18.74;43.26;97365.97;6127308;23;20563;-94
2022/01/10 08:30:49;;;;;;;3.20;2.67;;;;;;;18.88;43.53;97390.25;6127469;23;20249;-89
2022/01/10 08:33:16;;;;;;;3.67;3.17;;;;;;;18.66;43.42;97364.81;6126686;23;20175;-94
2022/01/10 08:35:42;;;;;;;3.30;3.00;;;;;;;19.10;43.97;97433.56;6103188;23;20222;-93
2022/01/10 08:38:09;;;;;;;3.30;3.00;;;;;;;18.87;43.55;97396.16;6102757;23;20181;-95
2022/01/10 08:40:35;;;;;;;4.27;2.97;;;;;;;18.67;43.46;97363.97;6103604;23;20171;-93
2022/01/10 08:43:06;;;;;;;3.20;2.63;;;;;;;18.82;43.63;97388.34;6103014;23;20202;-94
2022/01/10 08:45:33;;;;;;;3.77;2.60;;;;;;;18.62;43.65;97371.44;6104282;23;20261;-94
2022/01/10 08:47:59;;;;;;;3.30;2.73;;;;;;;18.39;43.91;97329.00;6103373;23;20201;-92
2022/01/10 08:50:27;;;;;;;3.17;2.50;;;;;;;18.70;43.77;97390.44;6102868;23;20245;-93
2022/01/10 08:52:53;;;;;;;5.07;2.73;;;;;;;18.44;43.85;97352.94;6103597;23;20562;-93
2022/01/10 08:55:20;;;;;;;3.70;2.60;;;;;;;19.08;43.88;97465.72;6102543;23;20210;-94
2022/01/10 08:57:46;;;;;;;6.70;3.27;;;;;;;18.89;43.68;97441.22;6127851;23;20232;-93
2022/01/10 09:00:13;;;;;;;9.40;5.23;;;;;;;18.62;41.31;97385.88;6103672;23;20181;-92
2022/01/10 09:02:40;;;;;;;9.00;5.53;;;;;;;19.01;40.80;97474.81;6128810;23;20170;-92
2022/01/10 09:05:09;;;;;;;8.13;4.97;;;;;;;18.81;41.35;97437.53;6104322;23;20190;-93
2022/01/10 09:07:36;;;;;;;8.07;4.90;;;;;;;18.99;41.56;97467.91;6105157;23;20391;-93
2022/01/10 09:10:04;;;;;;;8.23;4.73;;;;;;;19.05;42.07;97483.44;6102400;23;20187;-93
2022/01/10 09:12:31;;;;;;;7.53;4.60;;;;;;;18.63;42.01;97419.00;6103994;23;20476;-93
2022/01/10 09:14:57;;;;;;;6.33;4.33;;;;;;;18.91;42.39;97475.28;6153157;23;20217;-94
2022/01/10 09:17:24;;;;;;;5.23;4.03;;;;;;;18.98;42.57;97489.97;6104985;23;20201;-94
2022/01/10 09:19:51;;;;;;;5.30;3.87;;;;;;;18.75;42.76;97460.22;6104875;23;20177;-93
2022/01/10 09:22:17;;;;;;;6.07;4.03;;;;;;;18.88;43.28;97494.66;6105092;23;20194;-93
2022/01/10 09:24:46;;;;;;;6.60;3.97;;;;;;;18.70;43.09;97460.81;6105354;23;20217;-92
2022/01/10 09:27:14;;;;;;;5.70;3.53;;;;;;;18.83;43.41;97475.78;6130819;23;20190;-93
2022/01/10 09:29:41;;;;;;;5.63;3.77;;;;;;;18.87;43.27;97491.25;6106593;23;20210;-90
2022/01/10 09:32:08;;;;;;;4.50;3.23;;;;;;;18.42;43.58;97412.22;6106869;23;20174;-93
2022/01/10 09:34:35;;;;;;;6.17;3.60;;;;;;;18.88;44.03;97490.44;6106282;23;20201;-92
2022/01/10 09:37:02;;;;;;;4.43;3.20;;;;;;;18.85;43.85;97482.66;6130455;23;20203;-93
2022/01/10 09:39:29;;;;;;;6.07;3.93;;;;;;;18.90;43.76;97493.03;6130494;23;20221;-94
2022/01/10 09:41:57;;;;;;;4.47;3.30;;;;;;;18.69;44.10;97461.66;6106128;23;20759;-92
2022/01/10 09:44:24;;;;;;;4.10;3.20;;;;;;;18.76;44.19;97468.69;6136114;23;20205;-93
2022/01/10 09:46:50;;;;;;;5.07;3.20;;;;;;;18.37;44.14;97403.47;6135556;23;20174;-93
2022/01/10 09:49:17;;;;;;;4.60;3.33;;;;;;;18.97;44.36;97515.38;6110442;23;20186;-91
2022/01/10 09:51:44;;;;;;;5.27;3.10;;;;;;;18.56;44.50;97444.16;6135637;23;20197;-92
2022/01/10 09:54:11;;;;;;;3.87;3.00;;;;;;;18.93;44.32;97511.84;6110670;23;20506;-93
2022/01/10 09:56:37;;;;;;;3.17;2.87;;;;;;;18.61;44.49;97463.88;6111073;23;20174;-94
2022/01/10 09:59:04;;;;;;;4.83;3.37;;;;;;;18.68;44.41;97465.00;6110630;23;20190;-93
2022/01/10 10:01:31;;;;;;;4.93;2.87;;;;;;;18.90;44.70;97514.28;6135399;23;20599;-94
2022/01/10 10:03:59;;;;;;;3.47;3.07;;;;;;;18.62;44.45;97480.88;6111235;23;20198;-90
2022/01/10 10:06:28;;;;;;;4.23;3.20;;;;;;;18.91;44.46;97533.84;6111343;23;20174;-94
2022/01/10 10:09:03;;;;;;;3.97;2.97;;;;;;;18.36;44.33;97445.88;6111253;23;20189;-94
2022/01/10 10:11:38;;;;;;;4.77;2.87;;;;;;;18.96;44.35;97550.19;6110583;23;20161;-92
2022/01/10 10:14:05;;;;;;;4.03;2.80;;;;;;;18.38;44.42;97451.06;6110151;23;20204;-91
2022/01/10 10:16:37;;;;;;;4.20;2.70;;;;;;;19.05;44.53;97567.50;6138506;23;20189;-94
2022/01/10 10:19:04;;;;;;;3.73;2.90;;;;;;;18.81;44.30;97544.47;6111872;23;20170;-92
2022/01/10 10:21:32;;;;;;;5.03;3.27;;;;;;;18.89;44.70;97550.72;6110807;23;20598;-91
2022/01/10 10:23:59;;;;;;;3.53;2.73;;;;;;;18.42;44.54;97474.16;6134664;23;20213;-91
2022/01/10 10:26:26;;;;;;;4.03;3.03;;;;;;;18.99;44.40;97592.72;6109595;23;20189;-88
2022/01/10 10:28:53;;;;;;;3.23;2.60;;;;;;;19.07;44.39;97588.81;6110744;23;20232;-92
2022/01/10 10:31:24;;;;;;;3.27;2.87;;;;;;;19.04;44.60;97601.41;6109783;23;20209;-92
2022/01/10 10:33:51;;;;;;;5.23;2.70;;;;;;;18.98;44.51;97588.44;6157961;23;20204;-91
2022/01/10 10:36:18;;;;;;;3.97;2.67;;;;;;;18.95;44.48;97594.25;6109116;23;20256;-92
2022/01/10 10:38:44;;;;;;;3.77;2.80;;;;;;;18.97;44.42;97596.88;6134406;23;20174;-92
2022/01/10 10:41:11;;;;;;;3.43;2.53;;;;;;;19.12;44.66;97622.94;6111587;23;20246;-94
2022/01/10 10:43:39;;;;;;;3.10;2.70;;;;;;;18.91;44.58;97587.31;6105061;23;20182;-90
2022/01/10 10:46:11;;;;;;;3.63;2.83;;;;;;;18.51;44.74;97525.41;6129540;23;20199;-92
2022/01/10 10:48:43;;;;;;;3.90;2.67;;;;;;;18.63;44.71;97542.84;6106398;23;20681;-92
2022/01/10 10:51:10;;;;;;;3.80;2.77;;;;;;;18.57;44.63;97532.41;6106129;23;20249;-93
2022/01/10 10:53:36;;;;;;;2.93;2.57;;;;;;;18.84;44.69;97594.63;6104918;23;20178;-91
2022/01/10 10:56:04;;;;;;;5.67;4.20;;;;;;;18.57;43.50;97545.16;6104982;23;20375;-92
2022/01/10 10:58:36;;;;;;;5.97;4.40;;;;;;;19.06;42.75;97630.34;6105660;23;20242;-91
2022/01/10 11:01:03;;;;;;;8.90;4.63;;;;;;;19.10;43.19;97637.31;6128356;23;20170;-93
2022/01/10 11:03:29;;;;;;;4.30;3.83;;;;;;;18.72;43.39;97574.66;6128418;23;20221;-94
2022/01/10 11:06:02;;;;;;;6.13;4.20;;;;;;;19.06;43.48;97654.16;6104128;23;20174;-92
2022/01/10 11:08:36;;;;;;;5.40;3.97;;;;;;;18.68;43.74;97574.47;6106965;23;20158;-94
2022/01/10 11:11:02;;;;;;;5.03;3.67;;;;;;;19.02;43.98;97644.66;6105503;23;20241;-93
2022/01/10 11:13:29;;;;;;;4.93;3.83;;;;;;;19.10;43.92;97661.09;6104889;23;20200;-93
2022/01/10 11:15:56;;;;;;;5.27;3.63;;;;;;;18.71;44.13;97589.88;6105584;23;20245;-88
2022/01/10 11:18:24;;;;;;;6.57;3.70;;;;;;;19.09;44.10;97654.28;6106072;23;20178;-93
2022/01/10 11:20:59;;;;;;;5.17;3.77;;;;;;;18.61;44.45;97586.06;6108819;23;20161;-91
2022/01/10 11:23:41;;;;;;;5.00;3.43;;;;;;;19.14;44.52;97672.28;6108638;23;20693;-92
2022/01/10 11:26:08;;;;;;;3.80;3.20;;;;;;;18.98;44.31;97657.19;6154443;23;20182;-92
2022/01/10 11:28:38;;;;;;;4.43;3.20;;;;;;;19.03;44.50;97660.78;6105256;23;20490;-92
2022/01/10 11:31:07;;;;;;;5.03;3.20;;;;;;;18.46;44.42;97572.69;6108321;23;20189;-93
2022/01/10 11:33:48;;;;;;;6.23;3.50;;;;;;;18.41;44.65;97565.69;6112328;23;20773;-92
2022/01/10 11:36:15;;;;;;;4.87;3.27;;;;;;;18.89;44.62;97654.28;6105478;23;20225;-92
2022/01/10 11:38:44;;;;;;;3.63;3.07;;;;;;;18.82;44.70;97636.97;6105497;23;20204;-90
2022/01/10 11:41:12;;;;;;;5.30;3.40;;;;;;;18.48;44.90;97585.47;6104905;23;20167;-92
2022/01/10 11:44:06;;;;;;;4.20;3.20;;;;;;;19.18;44.84;97704.72;6127443;23;20519;-91
2022/01/10 11:46:39;;;;;;;3.43;2.77;;;;;;;19.18;44.83;97705.59;6154032;23;20249;-90
2022/01/10 11:49:08;;;;;;;3.63;2.80;;;;;;;19.18;44.84;97707.25;6153273;23;20253;-88
2022/01/10 11:51:36;;;;;;;3.37;2.60;;;;;;;19.02;44.99;97690.50;6153488;23;20574;-90
2022/01/10 11:54:22;;;;;;;2.70;2.50;;;;;;;18.53;44.60;97600.13;6152739;23;20228;-90
2022/01/10 11:57:08;;;;;;;7.77;3.93;;;;;;;18.78;44.16;97653.81;6129635;23;20186;-92
2022/01/10 11:59:42;;;;;;;7.97;5.33;;;;;;;18.90;42.47;97672.16;6107176;23;20556;-91
2022/01/10 12:02:14;;;;;;;6.13;5.53;;;;;;;18.88;42.53;97667.78;6104531;23;20174;-91
2022/01/10 12:04:46;;;;;;;5.13;4.63;;;;;;;18.81;43.02;97679.41;6128430;23;20572;-91
2022/01/10 12:07:14;;;;;;;5.67;4.57;;;;;;;19.03;43.38;97707.50;6127528;23;20198;-91
2022/01/10 12:09:41;;;;;;;6.53;4.33;;;;;;;18.72;43.50;97652.69;6102530;23;20220;-91